Аэропорт: Актау. Актау

ICAO: UATE

METAR:
2021-10-23 02:00:00
UATE 230200Z 12005MPS CAVOK 09/06 Q1022 R12/0///70 NOSIG RMK QFE764/1019
METAR:
2021-10-22 22:58:00
TAF UATE 222258Z 2300/2324 12006MPS 9999 SCT005 BKN015 TX18/2309Z TN08/2302Z TEMPO 2300/2303 1000 BR BKN002 BECMG 2305/2307 14006G12MPS SCT015 BECMG 2314/2316 14005MPS